Wolf 59 — CGBP — position and weather

sailwx.info

Track history (hours):
 
Tides and Currents Weather Stations Pressure Air Temp Water Temp Dewpoint Dewpoint Depression Visibility Wind Speed Wind Dir Waves Ship Positions

Wolf 59

Last reported at 2015-Jul-31 20:33 UTC. Time now 2015-Jul-31 21:27 UTC.
Position N 49°36' W 124°52'.

Length 33 m; draft 2.6 m.

Type: Military. MMSI: 316011515.

Date/timePositionNaut miles runAvg speedWind from/ knotsBaromVisibWave heightAir tempDewpointWater temp
2015-Jul-31 20:33N 49°36' W 124°52'1 0.7
2015-Jul-31 19:18N 49°36' W 124°50'0 0.2
2015-Jul-31 18:26N 49°36' W 124°51'5 1.7
2015-Jul-31 15:32N 49°40' W 124°55'0 0.0
2015-Jul-31 14:08N 49°40' W 124°55'0 0.0
2015-Jul-31 00:29N 49°40' W 124°55'0 0.0
2015-Jul-30 23:25N 49°40' W 124°55'3 3.3
2015-Jul-30 22:33N 49°37' W 124°53'1 1.3
2015-Jul-30 21:33N 49°39' W 124°53'2 0.8
2015-Jul-30 19:30N 49°40' W 124°55'0 0.0
2015-Jul-30 18:33N 49°40' W 124°55'0 0.0
2015-Jul-30 17:33N 49°40' W 124°55'0 0.0
2015-Jul-30 16:33N 49°40' W 124°55'0 0.0
2015-Jul-30 15:33N 49°40' W 124°55'0 0.0
2015-Jul-30 14:33N 49°40' W 124°55'0 0.0
2015-Jul-30 13:33N 49°40' W 124°55'0 0.0
2015-Jul-30 12:33N 49°40' W 124°55'0 0.0
2015-Jul-30 11:33N 49°40' W 124°55'0 0.0
2015-Jul-30 10:33N 49°40' W 124°55'0 0.0
2015-Jul-30 09:33N 49°40' W 124°55'0 0.0
2015-Jul-30 02:30N 49°40' W 124°55'0 0.0
2015-Jul-30 01:30N 49°40' W 124°55'0 0.0
2015-Jul-30 00:33N 49°40' W 124°55'0 0.0
2015-Jul-29 23:30N 49°40' W 124°55'0 0.0
2015-Jul-29 22:06N 49°40' W 124°55'4 6.5
2015-Jul-29 21:33N 49°37' W 124°53'1 1.5
2015-Jul-29 20:33N 49°36' W 124°50'0 0.0
2015-Jul-29 19:29N 49°36' W 124°50'2 2.5
2015-Jul-29 18:33N 49°37' W 124°53'2 2.1
2015-Jul-29 17:33N 49°36' W 124°52'2 2.3
2015-Jul-29 16:33N 49°38' W 124°53'2 2.4
2015-Jul-29 15:32N 49°40' W 124°55'0 0.0
2015-Jul-29 14:32N 49°40' W 124°55'0 0.0
2015-Jul-29 13:33N 49°40' W 124°55'0 0.0
2015-Jul-29 12:33N 49°40' W 124°55'0 0.0
2015-Jul-29 11:33N 49°40' W 124°55'0 0.0
2015-Jul-29 10:33N 49°40' W 124°55'0 0.0
2015-Jul-29 09:33N 49°40' W 124°55'0 0.0
2015-Jul-29 08:33N 49°40' W 124°55'0 0.0
2015-Jul-29 03:14N 49°40' W 124°55'0 0.0
2015-Jul-29 02:18N 49°40' W 124°55'0 0.0
2015-Jul-29 01:30N 49°40' W 124°55'0 0.0
2015-Jul-29 00:09N 49°40' W 124°55'0 0.0
2015-Jul-28 23:33N 49°40' W 124°55'0 0.0
2015-Jul-28 22:33N 49°40' W 124°55'0 0.0
2015-Jul-28 21:33N 49°40' W 124°55'0 0.0
2015-Jul-27 07:30N 49°40' W 124°55'0 0.0
2015-Jul-27 06:33N 49°40' W 124°55'0 0.0
2015-Jul-27 05:31N 49°40' W 124°55'0 0.0
2015-Jul-26 23:33N 49°40' W 124°55'7 7.4
2015-Jul-26 22:33N 49°44' W 124°46'8 8.1
2015-Jul-26 21:33N 49°49' W 124°36'1414.4
2015-Jul-26 20:33N 49°42' W 124°17'1413.7
2015-Jul-26 19:33N 49°33' W 124°01'1010.1
2015-Jul-26 18:33N 49°26' W 123°49'8 7.7
2015-Jul-26 17:33N 49°22' W 123°39'1111.4
2015-Jul-26 16:33N 49°19' W 123°22'1010.4
2015-Jul-26 15:34N 49°18' W 123°06'1 0.7
2015-Jul-26 14:33N 49°17' W 123°07'0 0.0
2015-Jul-26 13:33N 49°17' W 123°07'0 0.0
2015-Jul-26 12:33N 49°17' W 123°07'0 0.0
2015-Jul-26 11:33N 49°17' W 123°07'0 0.0
2015-Jul-26 10:33N 49°17' W 123°07'0 0.0
2015-Jul-26 09:33N 49°17' W 123°07'0 0.0
2015-Jul-26 08:33N 49°17' W 123°07'0 0.0
2015-Jul-26 07:33N 49°17' W 123°07'0 0.0
2015-Jul-26 06:33N 49°17' W 123°07'0 0.0
2015-Jul-26 05:33N 49°17' W 123°07'0 0.0
2015-Jul-26 04:33N 49°17' W 123°07'0 0.0
2015-Jul-26 03:33N 49°17' W 123°07'0 0.0
2015-Jul-26 02:33N 49°17' W 123°07'0 0.0
2015-Jul-26 01:33N 49°17' W 123°07'0 0.0
2015-Jul-26 00:33N 49°17' W 123°07'1 1.2
2015-Jul-25 23:33N 49°19' W 123°08'1313.2
2015-Jul-25 22:34N 49°12' W 123°25'3 3.5
2015-Jul-25 21:33N 49°08' W 123°27'1919.3
2015-Jul-25 20:33N 48°55' W 123°05'1212.1
2015-Jul-25 19:33N 48°43' W 123°09'1212.3
2015-Jul-25 18:33N 48°31' W 123°11'1010.1
2015-Jul-25 17:34N 48°22' W 123°16'8 8.0
2015-Jul-25 16:34N 48°26' W 123°26'  
Track history (hours):
 
Tides and Currents Weather Stations Pressure Air Temp Water Temp Dewpoint Dewpoint Depression Visibility Wind Speed Wind Dir Waves Ship Positions

Wolf 59

Last reported at 2015-Jul-31 20:33 UTC. Time now 2015-Jul-31 21:27 UTC.
Position N 49°36' W 124°52'.

Length 33 m; draft 2.6 m.

Type: Military. MMSI: 316011515.

Date/timePositionNaut miles runAvg speedWind from/ knotsBaromVisibWave heightAir tempDewpointWater temp
2015-Jul-31 20:33N 49°36' W 124°52'1 0.7
2015-Jul-31 19:18N 49°36' W 124°50'0 0.2
2015-Jul-31 18:26N 49°36' W 124°51'5 1.7
2015-Jul-31 15:32N 49°40' W 124°55'0 0.0
2015-Jul-31 14:08N 49°40' W 124°55'0 0.0
2015-Jul-31 00:29N 49°40' W 124°55'0 0.0
2015-Jul-30 23:25N 49°40' W 124°55'3 3.3
2015-Jul-30 22:33N 49°37' W 124°53'1 1.3
2015-Jul-30 21:33N 49°39' W 124°53'2 0.8
2015-Jul-30 19:30N 49°40' W 124°55'0 0.0
2015-Jul-30 18:33N 49°40' W 124°55'0 0.0
2015-Jul-30 17:33N 49°40' W 124°55'0 0.0
2015-Jul-30 16:33N 49°40' W 124°55'0 0.0
2015-Jul-30 15:33N 49°40' W 124°55'0 0.0
2015-Jul-30 14:33N 49°40' W 124°55'0 0.0
2015-Jul-30 13:33N 49°40' W 124°55'0 0.0
2015-Jul-30 12:33N 49°40' W 124°55'0 0.0
2015-Jul-30 11:33N 49°40' W 124°55'0 0.0
2015-Jul-30 10:33N 49°40' W 124°55'0 0.0
2015-Jul-30 09:33N 49°40' W 124°55'0 0.0
2015-Jul-30 02:30N 49°40' W 124°55'0 0.0
2015-Jul-30 01:30N 49°40' W 124°55'0 0.0
2015-Jul-30 00:33N 49°40' W 124°55'0 0.0
2015-Jul-29 23:30N 49°40' W 124°55'0 0.0
2015-Jul-29 22:06N 49°40' W 124°55'4 6.5
2015-Jul-29 21:33N 49°37' W 124°53'1 1.5
2015-Jul-29 20:33N 49°36' W 124°50'0 0.0
2015-Jul-29 19:29N 49°36' W 124°50'2 2.5
2015-Jul-29 18:33N 49°37' W 124°53'2 2.1
2015-Jul-29 17:33N 49°36' W 124°52'2 2.3
2015-Jul-29 16:33N 49°38' W 124°53'2 2.4
2015-Jul-29 15:32N 49°40' W 124°55'0 0.0
2015-Jul-29 14:32N 49°40' W 124°55'0 0.0
2015-Jul-29 13:33N 49°40' W 124°55'0 0.0
2015-Jul-29 12:33N 49°40' W 124°55'0 0.0
2015-Jul-29 11:33N 49°40' W 124°55'0 0.0
2015-Jul-29 10:33N 49°40' W 124°55'0 0.0
2015-Jul-29 09:33N 49°40' W 124°55'0 0.0
2015-Jul-29 08:33N 49°40' W 124°55'0 0.0
2015-Jul-29 03:14N 49°40' W 124°55'0 0.0
2015-Jul-29 02:18N 49°40' W 124°55'0 0.0
2015-Jul-29 01:30N 49°40' W 124°55'0 0.0
2015-Jul-29 00:09N 49°40' W 124°55'0 0.0
2015-Jul-28 23:33N 49°40' W 124°55'0 0.0
2015-Jul-28 22:33N 49°40' W 124°55'0 0.0
2015-Jul-28 21:33N 49°40' W 124°55'0 0.0
2015-Jul-27 07:30N 49°40' W 124°55'0 0.0
2015-Jul-27 06:33N 49°40' W 124°55'0 0.0
2015-Jul-27 05:31N 49°40' W 124°55'0 0.0
2015-Jul-26 23:33N 49°40' W 124°55'7 7.4
2015-Jul-26 22:33N 49°44' W 124°46'8 8.1
2015-Jul-26 21:33N 49°49' W 124°36'1414.4
2015-Jul-26 20:33N 49°42' W 124°17'1413.7
2015-Jul-26 19:33N 49°33' W 124°01'1010.1
2015-Jul-26 18:33N 49°26' W 123°49'8 7.7
2015-Jul-26 17:33N 49°22' W 123°39'1111.4
2015-Jul-26 16:33N 49°19' W 123°22'1010.4
2015-Jul-26 15:34N 49°18' W 123°06'1 0.7
2015-Jul-26 14:33N 49°17' W 123°07'0 0.0
2015-Jul-26 13:33N 49°17' W 123°07'0 0.0
2015-Jul-26 12:33N 49°17' W 123°07'0 0.0
2015-Jul-26 11:33N 49°17' W 123°07'0 0.0
2015-Jul-26 10:33N 49°17' W 123°07'0 0.0
2015-Jul-26 09:33N 49°17' W 123°07'0 0.0
2015-Jul-26 08:33N 49°17' W 123°07'0 0.0
2015-Jul-26 07:33N 49°17' W 123°07'0 0.0
2015-Jul-26 06:33N 49°17' W 123°07'0 0.0
2015-Jul-26 05:33N 49°17' W 123°07'0 0.0
2015-Jul-26 04:33N 49°17' W 123°07'0 0.0
2015-Jul-26 03:33N 49°17' W 123°07'0 0.0
2015-Jul-26 02:33N 49°17' W 123°07'0 0.0
2015-Jul-26 01:33N 49°17' W 123°07'0 0.0
2015-Jul-26 00:33N 49°17' W 123°07'1 1.2
2015-Jul-25 23:33N 49°19' W 123°08'1313.2
2015-Jul-25 22:34N 49°12' W 123°25'3 3.5
2015-Jul-25 21:33N 49°08' W 123°27'1919.3
2015-Jul-25 20:33N 48°55' W 123°05'1212.1
2015-Jul-25 19:33N 48°43' W 123°09'1212.3
2015-Jul-25 18:33N 48°31' W 123°11'1010.1
2015-Jul-25 17:34N 48°22' W 123°16'8 8.0
2015-Jul-25 16:34N 48°26' W 123°26'  

Dump ship's entire track history